EGLL - London / Heathrow Airport
Distance from station: E 5mi, 14km
Updated: 10/20/2017 4:20pm
Light rain, Drizzle, Overcast
Light rain, Drizzle, Overcast
 Wind from S
Wind: S 14 mph , 22 km/h
Temperature: 57°F , 14°C
Dew Point: 54°F , 12°C
Humidity: 88%
Barometer: 29.65 inHg , 1004 hPa
Summary: Light rain, Drizzle
Clouds: Overcast
Visibility: 3 miles , 5 km
Cloud details: Mostly Cloudy 1400 ft
Mostly Cloudy 2200 ft
Overcast 2600 ft
2017/10/20 23:20 EGLL 202320Z AUTO 17012KT 5000 -RADZ BKN014 BKN022 OVC026 14/12 Q1004 TEMPO RA SCT014